Main page
METAR-TAF:

METAR-TAF

Airports :

RAF Shawbury

Shawbury, England

latitude: 52-48N, longitude: 002-40W, elevation: 76 m

Current weather observation

The report was made 1 hour and 10 minutes ago, at 18:50 UTC
Wind 10 kt from the North/Northwest
Temperature 16°C
Humidity 59%
Pressure 1026 hPa
Visibility 10 km or more

METAR: EGOS 231850Z AUTO 34010KT 9999 FEW220/// 16/08 Q1026

Time: 21:00 (20:00 UTC)


TAF: missing

Weather observations and forecasts of more than 4000 airports (METAR and TAF reports).

The available stations are represented by yellow and red dots on the map.

Hover mouse over dot to see the name of the station.

Then click to see weather observations and forecasts.

To change the map : click on the green buttons with a black cross to zoom in, on the green button with a dash to zoom out, or on the green arrows for adjacent maps.


METAR-TAF: